Time;durP1;ratioP1;P1;durP2;ratioP2;P2;SDS_P1;SDS_P2;PMS_P1;PMS_P2;Temp;Humidity;BMP_temperature;BMP_pressure;BME280_temperature;BME280_humidity;BME280_pressure;Samples;Min_cycle;Max_cycle;Signal;HPM_P1;HPM_P2
2022/12/03 00:01:53;;;;;;;23.30;12.10;;;4.40;99.90;;;;;;5030333;28;20032;-71
2022/12/03 00:04:18;;;;;;;26.30;13.70;;;4.40;99.90;;;;;;5034571;28;20033;-72
2022/12/03 00:06:44;;;;;;;20.98;12.30;;;4.40;99.90;;;;;;5034729;28;20504;-71
2022/12/03 00:09:09;;;;;;;25.05;11.15;;;4.40;99.90;;;;;;5035037;28;20037;-71
2022/12/03 00:11:35;;;;;;;26.45;12.55;;;4.40;99.90;;;;;;5003097;28;20018;-71
2022/12/03 00:14:00;;;;;;;21.95;12.88;;;4.40;99.90;;;;;;5028442;28;20418;-71
2022/12/03 00:16:26;;;;;;;29.83;12.98;;;4.40;99.90;;;;;;5014159;28;20022;-71
2022/12/03 00:18:51;;;;;;;22.38;12.90;;;4.40;99.90;;;;;;5017890;28;20057;-71
2022/12/03 00:21:17;;;;;;;28.65;14.70;;;4.40;99.90;;;;;;5022051;28;20092;-71
2022/12/03 00:23:42;;;;;;;21.00;12.63;;;4.40;99.90;;;;;;5034617;28;20434;-71
2022/12/03 00:26:08;;;;;;;28.63;13.63;;;4.40;99.90;;;;;;5018034;28;20034;-71
2022/12/03 00:28:34;;;;;;;26.63;14.07;;;4.40;99.90;;;;;;5014145;28;20567;-71
2022/12/03 00:30:59;;;;;;;20.00;12.10;;;4.40;99.90;;;;;;5026781;28;20080;-71
2022/12/03 00:33:25;;;;;;;25.95;13.07;;;4.40;99.90;;;;;;5034373;28;20366;-71
2022/12/03 00:35:50;;;;;;;23.42;12.52;;;4.40;99.90;;;;;;5034361;28;20108;-71
2022/12/03 00:38:16;;;;;;;29.85;11.93;;;4.40;99.90;;;;;;5023073;28;20052;-71
2022/12/03 00:40:41;;;;;;;31.13;12.95;;;4.40;99.90;;;;;;5015073;28;20486;-71
2022/12/03 00:43:07;;;;;;;23.52;13.65;;;4.30;99.90;;;;;;5014242;28;20482;-71
2022/12/03 00:45:32;;;;;;;22.73;13.07;;;4.30;99.90;;;;;;5033720;28;20083;-71
2022/12/03 00:47:58;;;;;;;22.63;11.63;;;4.40;99.90;;;;;;5032618;28;20044;-71
2022/12/03 00:50:24;;;;;;;21.75;11.43;;;4.40;99.90;;;;;;5024551;28;20044;-71
2022/12/03 00:52:49;;;;;;;27.98;12.32;;;4.40;99.90;;;;;;5031218;28;20063;-71
2022/12/03 00:55:15;;;;;;;20.52;11.13;;;4.30;99.90;;;;;;5024431;28;20109;-72
2022/12/03 00:57:41;;;;;;;22.33;11.75;;;4.30;99.90;;;;;;5019913;28;20030;-71
2022/12/03 01:00:08;;;;;;;26.20;11.52;;;4.30;99.90;;;;;;5033901;28;20562;-72
2022/12/03 01:02:34;;;;;;;21.60;11.45;;;4.30;99.90;;;;;;5033416;28;20036;-71
2022/12/03 01:05:00;;;;;;;23.10;12.43;;;4.40;99.90;;;;;;5034159;28;20017;-72
2022/12/03 01:07:26;;;;;;;18.08;10.50;;;4.30;99.90;;;;;;5033820;28;20378;-72
2022/12/03 01:09:51;;;;;;;20.23;12.10;;;4.30;99.90;;;;;;5033133;28;20091;-71
2022/12/03 01:12:17;;;;;;;24.95;11.60;;;4.30;99.90;;;;;;5033712;28;20060;-71
2022/12/03 01:14:43;;;;;;;23.33;10.32;;;4.30;99.90;;;;;;5033537;28;20022;-71
2022/12/03 01:17:08;;;;;;;18.27;9.43;;;4.20;99.90;;;;;;5033004;28;20026;-72
2022/12/03 01:19:34;;;;;;;14.63;8.68;;;4.20;99.90;;;;;;5014131;28;20509;-71
2022/12/03 01:22:03;;;;;;;15.25;8.68;;;4.20;99.90;;;;;;5031550;23;20476;-71
2022/12/03 01:24:29;;;;;;;25.27;8.50;;;4.10;99.90;;;;;;5025216;28;20025;-71
2022/12/03 01:26:55;;;;;;;15.45;7.38;;;4.10;99.90;;;;;;5033581;28;20025;-71
2022/12/03 01:29:22;;;;;;;11.80;7.68;;;4.10;99.90;;;;;;5033163;28;20052;-71
2022/12/03 01:32:33;;;;;;;14.13;7.32;;;4.00;99.90;;;;;;5015105;28;20097;-71
2022/12/03 01:34:33;;;;;;;13.57;7.00;;;3.90;99.90;;;;;;4996309;28;20040;-71
2022/12/03 01:36:59;;;;;;;11.40;6.22;;;3.90;99.90;;;;;;4994179;28;20097;-71
2022/12/03 01:39:24;;;;;;;14.57;6.43;;;3.90;99.90;;;;;;5010506;28;20437;-71
2022/12/03 01:41:52;;;;;;;12.50;6.75;;;3.80;99.90;;;;;;5001721;28;20117;-71
2022/12/03 01:44:21;;;;;;;15.13;5.95;;;3.80;99.90;;;;;;5006861;28;20034;-72
2022/12/03 01:46:48;;;;;;;15.45;7.05;;;3.80;99.90;;;;;;5009273;28;20116;-71
2022/12/03 01:49:23;;;;;;;14.05;7.47;;;3.90;99.90;;;;;;5009515;28;20034;-71
2022/12/03 01:51:50;;;;;;;10.82;6.05;;;3.90;99.90;;;;;;4994780;28;20026;-71
2022/12/03 01:54:18;;;;;;;11.38;6.68;;;3.80;99.90;;;;;;5012672;28;20056;-72
2022/12/03 01:56:46;;;;;;;11.15;6.38;;;3.80;99.90;;;;;;5013034;28;20073;-71
2022/12/03 01:59:17;;;;;;;15.52;7.22;;;3.80;99.90;;;;;;5019421;28;20026;-71
2022/12/03 02:01:42;;;;;;;15.27;7.03;;;3.80;99.90;;;;;;5004336;28;20429;-72
2022/12/03 02:04:13;;;;;;;16.88;8.73;;;3.80;99.90;;;;;;5016716;28;20114;-71
2022/12/03 02:06:40;;;;;;;13.82;9.25;;;3.80;99.90;;;;;;5016997;28;20034;-71
2022/12/03 02:09:08;;;;;;;15.35;7.95;;;3.80;99.90;;;;;;5019465;28;20022;-71
2022/12/03 02:11:40;;;;;;;23.75;9.52;;;3.80;99.90;;;;;;5006860;28;20034;-71
2022/12/03 02:14:10;;;;;;;13.45;7.75;;;3.80;99.90;;;;;;5020067;28;20156;-71
2022/12/03 02:16:37;;;;;;;18.63;8.43;;;3.80;99.90;;;;;;5018545;28;20037;-71
2022/12/03 02:19:20;;;;;;;12.73;7.45;;;3.80;99.90;;;;;;5018741;28;20033;-71
2022/12/03 02:22:26;;;;;;;14.35;8.60;;;3.80;99.90;;;;;;5007137;28;20038;-72
2022/12/03 02:25:07;;;;;;;15.52;7.38;;;3.70;99.90;;;;;;4999004;28;20437;-72
2022/12/03 02:27:33;;;;;;;17.05;7.63;;;3.70;99.90;;;;;;4999389;28;20489;-71
2022/12/03 02:29:58;;;;;;;14.38;8.88;;;3.70;99.90;;;;;;4999984;28;20030;-71
2022/12/03 02:32:24;;;;;;;12.85;7.35;;;3.70;99.90;;;;;;5015270;28;20019;-71
2022/12/03 02:34:50;;;;;;;13.60;7.43;;;3.70;99.90;;;;;;4999808;28;20503;-72
2022/12/03 02:37:22;;;;;;;16.70;6.80;;;3.70;99.90;;;;;;5001701;28;20104;-72
2022/12/03 02:39:54;;;;;;;13.65;6.97;;;3.80;99.90;;;;;;5002226;28;20034;-71
2022/12/03 02:42:36;;;;;;;15.02;7.43;;;3.70;99.90;;;;;;5001362;28;20041;-71
2022/12/03 02:45:10;;;;;;;15.38;6.20;;;3.70;99.90;;;;;;5000982;28;20502;-72
2022/12/03 02:47:42;;;;;;;12.55;6.88;;;3.70;99.90;;;;;;4999567;28;20038;-72
2022/12/03 02:50:10;;;;;;;9.70;5.95;;;3.70;99.90;;;;;;4999954;28;20062;-71
2022/12/03 02:52:36;;;;;;;11.70;5.38;;;3.60;99.90;;;;;;4999951;28;20019;-71
2022/12/03 02:55:04;;;;;;;17.35;6.68;;;3.70;99.90;;;;;;5000165;28;20470;-71
2022/12/03 02:57:30;;;;;;;11.82;6.53;;;3.70;99.90;;;;;;4999765;28;20034;-71
2022/12/03 02:59:55;;;;;;;10.63;5.97;;;3.70;99.90;;;;;;4998526;28;20034;-71
2022/12/03 03:02:21;;;;;;;14.25;6.93;;;3.60;99.90;;;;;;4999388;28;20093;-71
2022/12/03 03:04:47;;;;;;;10.27;6.55;;;3.60;99.90;;;;;;4995564;28;20023;-72
2022/12/03 03:07:15;;;;;;;11.80;5.35;;;3.60;99.90;;;;;;4996709;28;20521;-72
2022/12/03 03:09:41;;;;;;;10.57;6.22;;;3.60;99.90;;;;;;4996897;28;20033;-72
2022/12/03 03:12:08;;;;;;;8.55;5.97;;;3.50;99.90;;;;;;5081622;23;20045;-72
2022/12/03 03:14:34;;;;;;;10.98;6.43;;;3.50;99.90;;;;;;5035354;28;20091;-71
2022/12/03 03:16:59;;;;;;;9.27;6.38;;;3.50;99.90;;;;;;5036169;28;20473;-71
2022/12/03 03:19:25;;;;;;;12.10;6.45;;;3.50;99.90;;;;;;5036129;28;20104;-71
2022/12/03 03:21:52;;;;;;;13.05;7.35;;;3.50;99.90;;;;;;5035843;28;20397;-71
2022/12/03 03:24:19;;;;;;;13.43;6.63;;;3.50;99.90;;;;;;5034433;28;20029;-71
2022/12/03 03:26:45;;;;;;;13.40;6.85;;;3.50;99.90;;;;;;5035379;28;20028;-71
2022/12/03 03:29:11;;;;;;;12.77;7.20;;;3.50;99.90;;;;;;5035809;28;20370;-71
2022/12/03 03:31:37;;;;;;;19.25;8.07;;;3.50;99.90;;;;;;5051040;23;20057;-72
2022/12/03 03:34:02;;;;;;;13.57;7.43;;;3.50;99.90;;;;;;5017868;28;20022;-72
2022/12/03 03:36:28;;;;;;;13.20;8.02;;;3.50;99.90;;;;;;5017720;28;20397;-71
2022/12/03 03:38:54;;;;;;;13.68;7.70;;;3.50;99.90;;;;;;5035755;28;20389;-71
2022/12/03 03:41:20;;;;;;;15.07;7.05;;;3.40;99.90;;;;;;5035520;28;20045;-72
2022/12/03 03:43:48;;;;;;;16.13;7.72;;;3.50;99.90;;;;;;5034928;28;20037;-71
2022/12/03 03:46:14;;;;;;;14.73;8.10;;;3.40;99.90;;;;;;5035345;28;20079;-71
2022/12/03 03:48:41;;;;;;;14.35;8.38;;;3.40;99.90;;;;;;5035470;28;20072;-71
2022/12/03 03:51:08;;;;;;;17.90;8.70;;;3.40;99.90;;;;;;5035010;28;20013;-71
2022/12/03 03:53:40;;;;;;;18.30;8.75;;;3.50;99.90;;;;;;5025911;28;20059;-72
2022/12/03 03:56:07;;;;;;;17.20;8.95;;;3.40;99.90;;;;;;5016518;28;20123;-71
2022/12/03 03:58:32;;;;;;;21.77;9.43;;;3.40;99.90;;;;;;5035133;28;20037;-71
2022/12/03 04:00:59;;;;;;;16.88;9.25;;;3.30;99.90;;;;;;5024825;28;20091;-72
2022/12/03 04:03:24;;;;;;;20.92;9.57;;;3.30;99.90;;;;;;5015376;28;20021;-71
2022/12/03 04:05:50;;;;;;;22.92;10.85;;;3.40;99.90;;;;;;5016713;28;20076;-71
2022/12/03 04:08:16;;;;;;;17.83;10.15;;;3.40;99.90;;;;;;5015034;28;20034;-71
2022/12/03 04:13:26;;;;;;;20.40;9.93;;;3.40;99.90;;;;;;5035094;28;20040;-72
2022/12/03 04:15:51;;;;;;;25.23;10.35;;;3.30;99.90;;;;;;5034663;28;20026;-72
2022/12/03 04:23:45;;;;;;;16.85;9.52;;;3.30;99.90;;;;;;5034948;28;20045;-72
2022/12/03 04:28:55;;;;;;;21.92;9.80;;;3.30;99.90;;;;;;5034377;28;20028;-72
2022/12/03 04:36:49;;;;;;;24.83;10.63;;;3.30;99.90;;;;;;5034592;28;20083;-71
2022/12/03 04:39:15;;;;;;;18.52;9.30;;;3.30;99.90;;;;;;5034460;28;20107;-72
2022/12/03 04:41:41;;;;;;;20.77;10.68;;;3.20;99.90;;;;;;5033958;28;20033;-71
2022/12/03 04:46:50;;;;;;;20.70;9.27;;;3.20;99.90;;;;;;5034510;28;20052;-72
2022/12/03 04:49:16;;;;;;;20.67;10.52;;;3.30;99.90;;;;;;5034045;28;20538;-72
2022/12/03 04:51:41;;;;;;;17.58;8.68;;;3.20;99.90;;;;;;5034347;28;20060;-72
2022/12/03 04:54:07;;;;;;;18.33;9.95;;;3.20;99.90;;;;;;5016372;28;20112;-72
2022/12/03 04:56:33;;;;;;;22.67;10.45;;;3.20;99.90;;;;;;5033703;28;20500;-72
2022/12/03 04:58:58;;;;;;;23.10;9.85;;;3.30;99.90;;;;;;5033949;28;20037;-72
2022/12/03 05:01:23;;;;;;;22.98;10.68;;;3.30;99.90;;;;;;5033713;28;20454;-72
2022/12/03 05:03:49;;;;;;;24.15;12.45;;;3.30;99.90;;;;;;5033892;28;20056;-72
2022/12/03 05:06:15;;;;;;;20.25;10.68;;;3.30;99.90;;;;;;5033865;28;20083;-72
2022/12/03 05:08:40;;;;;;;18.20;10.27;;;3.30;99.90;;;;;;5033740;28;20029;-72
2022/12/03 05:11:06;;;;;;;20.40;10.70;;;3.30;99.90;;;;;;5033365;28;20030;-72
2022/12/03 05:13:31;;;;;;;16.88;9.82;;;3.30;99.90;;;;;;5033729;28;20034;-72
2022/12/03 05:15:56;;;;;;;17.90;10.57;;;3.30;99.90;;;;;;5033611;28;20048;-71
2022/12/03 05:18:22;;;;;;;22.27;11.90;;;3.20;99.90;;;;;;5033630;28;20087;-72
2022/12/03 05:20:47;;;;;;;19.25;10.15;;;3.20;99.90;;;;;;5033467;28;20393;-72
2022/12/03 05:23:13;;;;;;;20.95;11.68;;;3.30;99.90;;;;;;5032974;28;20029;-72
2022/12/03 05:25:40;;;;;;;23.92;11.40;;;3.30;99.90;;;;;;5033515;28;20022;-72
2022/12/03 05:28:06;;;;;;;22.55;10.50;;;3.30;99.90;;;;;;5033209;28;20079;-72
2022/12/03 05:30:32;;;;;;;23.58;11.80;;;3.30;99.90;;;;;;5038686;23;20033;-75
2022/12/03 05:32:57;;;;;;;20.55;11.02;;;3.30;99.90;;;;;;5033156;28;20111;-73
2022/12/03 05:35:23;;;;;;;20.20;12.05;;;3.30;99.90;;;;;;5033474;28;20036;-75
2022/12/03 05:37:49;;;;;;;28.95;11.95;;;3.30;99.90;;;;;;5034014;28;20029;-75
2022/12/03 05:40:15;;;;;;;18.45;11.15;;;3.30;99.90;;;;;;5033674;28;20022;-75
2022/12/03 05:42:52;;;;;;;18.15;11.00;;;3.30;99.90;;;;;;5033627;28;20097;-75
2022/12/03 05:45:32;;;;;;;23.02;11.75;;;3.30;99.90;;;;;;5034300;28;20036;-75
2022/12/03 05:47:59;;;;;;;22.25;12.30;;;3.20;99.90;;;;;;5033030;28;20029;-75
2022/12/03 05:50:27;;;;;;;30.98;12.30;;;3.30;99.90;;;;;;5032372;28;20048;-74
2022/12/03 05:52:54;;;;;;;21.13;12.00;;;3.30;99.90;;;;;;5033588;28;20026;-74
2022/12/03 05:55:19;;;;;;;19.63;10.52;;;3.30;99.90;;;;;;5033773;28;20065;-75
2022/12/03 05:57:45;;;;;;;16.90;11.98;;;3.30;99.90;;;;;;5033561;28;20061;-75
2022/12/03 06:00:17;;;;;;;20.00;11.18;;;3.20;99.90;;;;;;5032992;28;20041;-75
2022/12/03 06:02:43;;;;;;;19.83;11.52;;;3.20;99.90;;;;;;5033518;28;20064;-75
2022/12/03 06:05:10;;;;;;;22.50;11.98;;;3.20;99.90;;;;;;5033706;28;20049;-75
2022/12/03 06:07:36;;;;;;;18.60;10.90;;;3.10;99.90;;;;;;5033320;28;20056;-75
2022/12/03 06:10:03;;;;;;;24.98;12.30;;;3.20;99.90;;;;;;5033753;28;20033;-75
2022/12/03 06:12:28;;;;;;;23.17;12.55;;;3.10;99.90;;;;;;5033299;28;20469;-75
2022/12/03 06:14:54;;;;;;;21.92;14.80;;;3.10;99.90;;;;;;5033215;28;20033;-75
2022/12/03 06:17:20;;;;;;;31.92;14.05;;;3.10;99.90;;;;;;5033615;28;20024;-75
2022/12/03 06:19:45;;;;;;;23.35;12.93;;;3.10;99.90;;;;;;5033399;28;20037;-74
2022/12/03 06:22:11;;;;;;;30.30;14.68;;;3.10;99.90;;;;;;5033261;28;20022;-75
2022/12/03 06:24:36;;;;;;;26.92;15.25;;;3.10;99.90;;;;;;5033015;28;20026;-74
2022/12/03 06:27:02;;;;;;;26.98;14.82;;;3.10;99.90;;;;;;5033182;28;20481;-75
2022/12/03 06:29:28;;;;;;;24.63;14.90;;;3.00;99.90;;;;;;5033883;28;20034;-75
2022/12/03 06:31:53;;;;;;;25.52;15.43;;;3.10;99.90;;;;;;5033066;28;20026;-75
2022/12/03 06:34:19;;;;;;;25.02;14.50;;;3.10;99.90;;;;;;5033463;28;20615;-75
2022/12/03 06:36:45;;;;;;;29.15;15.32;;;3.10;99.90;;;;;;5032690;28;20443;-75
2022/12/03 06:39:11;;;;;;;24.80;14.40;;;3.10;99.90;;;;;;5032320;28;20029;-75
2022/12/03 06:41:37;;;;;;;23.20;14.77;;;3.10;99.90;;;;;;5036904;28;20030;-75
2022/12/03 06:44:02;;;;;;;27.33;14.98;;;3.10;99.90;;;;;;5036753;28;20496;-74
2022/12/03 06:46:28;;;;;;;25.20;15.25;;;3.10;99.90;;;;;;5035443;28;20488;-75
2022/12/03 06:48:53;;;;;;;24.98;15.52;;;3.00;99.90;;;;;;5037163;28;20026;-75
2022/12/03 06:51:19;;;;;;;26.70;15.27;;;3.00;99.90;;;;;;5035663;28;20067;-75
2022/12/03 06:53:44;;;;;;;28.38;15.55;;;3.00;99.90;;;;;;5034762;28;20021;-75
2022/12/03 06:56:10;;;;;;;29.60;16.27;;;3.00;99.90;;;;;;5035525;28;20045;-75
2022/12/03 06:58:35;;;;;;;26.38;14.77;;;3.00;99.90;;;;;;5036317;28;20512;-75
2022/12/03 07:01:01;;;;;;;27.45;15.27;;;3.00;99.90;;;;;;5036931;28;20041;-75
2022/12/03 07:03:26;;;;;;;27.15;14.45;;;3.00;99.90;;;;;;5036293;28;20028;-75
2022/12/03 07:05:52;;;;;;;23.63;15.43;;;3.00;99.90;;;;;;5036118;28;20041;-75
2022/12/03 07:08:17;;;;;;;30.63;16.20;;;3.00;99.90;;;;;;5036444;28;20033;-75
2022/12/03 07:10:43;;;;;;;33.47;17.83;;;2.90;99.90;;;;;;5036522;28;20036;-74
2022/12/03 07:13:08;;;;;;;35.25;18.45;;;2.90;99.90;;;;;;5036227;28;20056;-75
2022/12/03 07:15:34;;;;;;;28.23;18.05;;;2.80;99.90;;;;;;5036441;28;20014;-75
2022/12/03 07:17:59;;;;;;;31.23;16.33;;;2.80;99.90;;;;;;5036108;28;20068;-75
2022/12/03 07:20:25;;;;;;;29.27;15.52;;;2.80;99.90;;;;;;5034801;28;20021;-74
2022/12/03 07:22:50;;;;;;;27.25;14.70;;;2.80;99.90;;;;;;5036126;28;20048;-75
2022/12/03 07:25:16;;;;;;;23.90;14.25;;;2.70;99.90;;;;;;5036130;28;20492;-75
2022/12/03 07:27:41;;;;;;;28.88;16.70;;;2.80;99.90;;;;;;5036034;28;20026;-75
2022/12/03 07:30:09;;;;;;;26.30;15.77;;;2.80;99.90;;;;;;5035576;28;20029;-75
2022/12/03 07:32:34;;;;;;;31.38;16.83;;;2.70;99.90;;;;;;5035822;28;20036;-74
2022/12/03 07:35:00;;;;;;;24.60;15.70;;;2.70;99.90;;;;;;5036222;28;20385;-75
2022/12/03 07:37:25;;;;;;;27.05;17.17;;;2.80;99.90;;;;;;5036060;28;20025;-75
2022/12/03 07:39:51;;;;;;;28.65;15.43;;;2.70;99.90;;;;;;5035796;28;20507;-75
2022/12/03 07:42:16;;;;;;;24.13;14.27;;;2.70;99.90;;;;;;5035399;28;20557;-74
2022/12/03 07:44:42;;;;;;;27.73;14.65;;;2.60;99.90;;;;;;5035514;28;20025;-75
2022/12/03 07:47:07;;;;;;;21.65;13.70;;;2.70;99.90;;;;;;5036528;28;20032;-74
2022/12/03 07:49:33;;;;;;;25.80;14.07;;;2.70;99.90;;;;;;5035325;28;20478;-75
2022/12/03 07:51:59;;;;;;;26.25;14.43;;;2.60;99.90;;;;;;5035209;28;20033;-74
2022/12/03 07:54:24;;;;;;;35.28;15.05;;;2.50;99.90;;;;;;5035089;28;20064;-75
2022/12/03 07:56:50;;;;;;;25.88;14.25;;;2.50;99.90;;;;;;5035683;28;20013;-75
2022/12/03 07:59:16;;;;;;;23.70;14.88;;;2.50;99.90;;;;;;5035460;28;20033;-74
2022/12/03 08:01:42;;;;;;;22.67;13.93;;;2.50;99.90;;;;;;5035324;28;20112;-74
2022/12/03 08:04:07;;;;;;;24.15;13.80;;;2.50;99.90;;;;;;5035972;28;20104;-74
2022/12/03 08:06:33;;;;;;;26.23;14.60;;;2.50;99.90;;;;;;5035066;28;20017;-74
2022/12/03 08:08:59;;;;;;;20.92;12.80;;;2.50;99.90;;;;;;5035171;28;20080;-74
2022/12/03 08:11:31;;;;;;;27.48;15.05;;;2.50;99.90;;;;;;5035194;28;20055;-74
2022/12/03 08:13:58;;;;;;;22.65;15.10;;;2.50;99.90;;;;;;5035351;28;20481;-74
2022/12/03 08:16:23;;;;;;;26.00;15.40;;;2.50;99.90;;;;;;5035449;28;20025;-74
2022/12/03 08:18:49;;;;;;;25.67;15.20;;;2.50;99.90;;;;;;5034907;28;20037;-75
2022/12/03 08:21:18;;;;;;;28.23;14.60;;;2.50;99.90;;;;;;5034386;28;20775;-74
2022/12/03 08:23:44;;;;;;;33.65;15.55;;;2.60;99.90;;;;;;5035671;28;20045;-74
2022/12/03 08:26:20;;;;;;;28.52;16.52;;;2.60;99.90;;;;;;5035031;28;20467;-74
2022/12/03 08:28:46;;;;;;;25.23;15.85;;;2.60;99.90;;;;;;5034962;28;20114;-74
2022/12/03 08:31:18;;;;;;;30.30;14.80;;;2.60;99.90;;;;;;5034130;28;20493;-74
2022/12/03 08:33:45;;;;;;;31.90;15.90;;;2.60;99.90;;;;;;5033595;28;20021;-74
2022/12/03 08:36:23;;;;;;;30.88;17.52;;;2.60;99.90;;;;;;5034671;28;20048;-74
2022/12/03 08:38:54;;;;;;;26.80;17.20;;;2.50;99.90;;;;;;5034777;28;20037;-75
2022/12/03 08:42:40;;;;;;;26.85;16.10;;;2.60;99.90;;;;;;5034742;28;20022;-75
2022/12/03 08:44:21;;;;;;;28.75;17.67;;;2.50;99.90;;;;;;5034013;28;20091;-75
2022/12/03 08:47:01;;;;;;;29.30;15.40;;;2.60;99.90;;;;;;5034566;28;20033;-75
2022/12/03 08:49:26;;;;;;;28.35;16.13;;;2.60;99.90;;;;;;5034267;28;20115;-75
2022/12/03 08:51:59;;;;;;;22.75;15.15;;;2.60;99.90;;;;;;5034375;28;20072;-75
2022/12/03 08:54:25;;;;;;;30.17;17.55;;;2.60;99.90;;;;;;5034359;28;20032;-75
2022/12/03 08:56:51;;;;;;;24.35;16.10;;;2.60;99.90;;;;;;5033739;28;20134;-75
2022/12/03 08:59:30;;;;;;;23.38;14.52;;;2.60;99.90;;;;;;5034268;28;20505;-75
2022/12/03 09:01:58;;;;;;;21.75;15.20;;;2.50;99.90;;;;;;5033336;28;20041;-74
2022/12/03 09:04:23;;;;;;;25.13;15.30;;;2.60;99.90;;;;;;5034048;28;20029;-74
2022/12/03 09:06:50;;;;;;;30.98;16.25;;;2.60;99.90;;;;;;5034329;28;20031;-74
2022/12/03 09:09:16;;;;;;;25.90;15.63;;;2.60;99.90;;;;;;5033409;28;20033;-73
2022/12/03 09:11:42;;;;;;;28.45;17.00;;;2.60;99.90;;;;;;5033880;28;20029;-74
2022/12/03 09:14:08;;;;;;;24.17;16.30;;;2.50;99.90;;;;;;5034238;28;20018;-74
2022/12/03 09:16:33;;;;;;;22.90;15.82;;;2.60;99.90;;;;;;5033676;28;20112;-74
2022/12/03 09:18:59;;;;;;;23.75;15.77;;;2.60;99.90;;;;;;5033958;28;20065;-74
2022/12/03 09:21:24;;;;;;;24.75;16.02;;;2.50;99.90;;;;;;5032176;28;20025;-74
2022/12/03 09:23:50;;;;;;;25.73;16.55;;;2.60;99.90;;;;;;5034075;28;20071;-74
2022/12/03 09:26:15;;;;;;;23.17;15.20;;;2.60;99.90;;;;;;5033765;28;20397;-74
2022/12/03 09:28:41;;;;;;;24.10;17.10;;;2.60;99.90;;;;;;5033806;28;20037;-74
2022/12/03 09:31:07;;;;;;;24.83;15.98;;;2.60;99.90;;;;;;5033295;28;20037;-74
2022/12/03 09:33:32;;;;;;;27.20;16.55;;;2.70;99.90;;;;;;5033805;28;20045;-74
2022/12/03 09:35:58;;;;;;;23.95;15.43;;;2.60;99.90;;;;;;5034111;28;20047;-74
2022/12/03 09:38:24;;;;;;;23.77;15.57;;;2.70;99.90;;;;;;5033859;28;20108;-74
2022/12/03 09:40:50;;;;;;;21.77;15.80;;;2.60;99.90;;;;;;5034091;28;20405;-74
2022/12/03 09:43:16;;;;;;;25.70;16.67;;;2.60;99.90;;;;;;5032911;28;20031;-74
2022/12/03 09:45:46;;;;;;;26.30;15.23;;;2.70;99.90;;;;;;5033499;28;20444;-73
2022/12/03 09:48:15;;;;;;;22.50;15.75;;;2.70;99.90;;;;;;5033344;28;20040;-74
2022/12/03 09:50:41;;;;;;;26.55;16.27;;;2.70;99.90;;;;;;5033481;28;20091;-73
2022/12/03 09:53:13;;;;;;;24.35;15.32;;;2.70;99.90;;;;;;5033317;28;20033;-74
2022/12/03 09:55:39;;;;;;;23.58;15.10;;;2.80;99.90;;;;;;5033563;28;20028;-74
2022/12/03 09:58:12;;;;;;;24.08;14.48;;;2.80;99.90;;;;;;5033336;28;20420;-74
2022/12/03 10:00:38;;;;;;;26.35;15.68;;;2.80;99.90;;;;;;5033454;28;20497;-73
2022/12/03 10:03:06;;;;;;;25.65;16.20;;;2.80;99.90;;;;;;5033826;28;20034;-74
2022/12/03 10:05:32;;;;;;;28.77;14.23;;;2.80;99.90;;;;;;5032840;28;20017;-72
2022/12/03 10:08:05;;;;;;;22.90;15.88;;;2.80;99.90;;;;;;5033173;28;20030;-74
2022/12/03 10:10:31;;;;;;;28.73;17.15;;;2.80;99.90;;;;;;5033070;28;20025;-74
2022/12/03 10:12:57;;;;;;;25.83;16.23;;;2.80;99.90;;;;;;5033330;28;20021;-74
2022/12/03 10:15:23;;;;;;;26.00;15.80;;;2.80;99.90;;;;;;5036749;28;20067;-74
2022/12/03 10:17:51;;;;;;;25.98;16.05;;;2.90;99.90;;;;;;5037194;28;20033;-74
2022/12/03 10:20:19;;;;;;;31.92;16.52;;;2.90;99.90;;;;;;5037038;28;20041;-74
2022/12/03 10:22:47;;;;;;;21.92;14.63;;;2.90;99.90;;;;;;5036439;28;20108;-74
2022/12/03 10:25:16;;;;;;;21.60;14.48;;;2.90;99.90;;;;;;5035936;28;20033;-74
2022/12/03 10:27:42;;;;;;;25.42;16.92;;;2.90;99.90;;;;;;5037093;28;20026;-74
2022/12/03 10:30:19;;;;;;;26.85;16.98;;;2.90;99.90;;;;;;5036974;28;20029;-74
2022/12/03 10:32:47;;;;;;;24.35;16.35;;;2.90;99.90;;;;;;5037750;28;20449;-74
2022/12/03 10:35:14;;;;;;;25.42;16.15;;;2.90;99.90;;;;;;5036248;28;20083;-73
2022/12/03 10:38:03;;;;;;;23.73;16.02;;;2.90;99.90;;;;;;5035696;28;20091;-74
2022/12/03 10:40:34;;;;;;;24.77;16.17;;;2.90;99.90;;;;;;5036912;28;20481;-73
2022/12/03 10:43:18;;;;;;;23.95;16.45;;;3.00;99.90;;;;;;5037493;28;20455;-74
2022/12/03 10:45:46;;;;;;;28.52;16.17;;;3.00;99.90;;;;;;5037223;28;20354;-74
2022/12/03 10:48:26;;;;;;;23.77;15.88;;;3.00;99.90;;;;;;5036404;28;20041;-74
2022/12/03 10:50:56;;;;;;;24.02;15.43;;;3.10;99.90;;;;;;5036928;28;20064;-74
2022/12/03 10:53:26;;;;;;;24.52;15.95;;;3.10;99.90;;;;;;5035504;28;20577;-74
2022/12/03 10:55:58;;;;;;;20.88;14.30;;;3.20;99.90;;;;;;5034650;28;20120;-74
2022/12/03 10:58:29;;;;;;;25.90;15.68;;;3.10;99.90;;;;;;5036657;28;20444;-73
2022/12/03 11:00:56;;;;;;;25.30;15.80;;;3.10;99.90;;;;;;5036509;28;20056;-74
2022/12/03 11:03:34;;;;;;;25.35;14.80;;;3.10;99.90;;;;;;5036464;28;20036;-74
2022/12/03 11:06:01;;;;;;;27.92;17.08;;;3.00;99.90;;;;;;5034340;28;20545;-74
2022/12/03 11:08:33;;;;;;;25.77;16.52;;;3.00;99.90;;;;;;5036404;28;20503;-74
2022/12/03 11:11:03;;;;;;;30.00;17.20;;;3.00;99.90;;;;;;5036160;28;20028;-74
2022/12/03 11:13:32;;;;;;;20.88;14.65;;;3.00;99.90;;;;;;5036436;28;20496;-74
2022/12/03 11:15:58;;;;;;;22.45;15.77;;;3.00;99.90;;;;;;5036210;28;20492;-74
2022/12/03 11:18:57;;;;;;;27.50;16.88;;;3.00;99.90;;;;;;5035606;28;20100;-74
2022/12/03 11:21:22;;;;;;;24.55;16.52;;;2.90;99.90;;;;;;5035078;28;20120;-75
2022/12/03 11:23:51;;;;;;;26.05;17.48;;;2.90;99.90;;;;;;5036467;28;20063;-76
2022/12/03 11:26:36;;;;;;;23.85;16.25;;;2.90;99.90;;;;;;5035471;28;20029;-75
2022/12/03 11:29:03;;;;;;;27.83;17.45;;;3.00;99.90;;;;;;5004628;28;20505;-75
2022/12/03 11:31:41;;;;;;;29.75;19.42;;;3.00;99.90;;;;;;5058694;23;20048;-71
2022/12/03 11:34:19;;;;;;;30.38;19.25;;;3.00;99.90;;;;;;5035833;28;20025;-71
2022/12/03 11:37:09;;;;;;;29.58;18.65;;;3.00;99.90;;;;;;5034995;28;20026;-71
2022/12/03 11:39:44;;;;;;;25.10;17.50;;;3.00;99.90;;;;;;5035897;28;20026;-71
2022/12/03 11:42:27;;;;;;;27.30;17.67;;;3.10;99.90;;;;;;5035265;28;20100;-71
2022/12/03 11:45:04;;;;;;;32.95;20.40;;;3.00;99.90;;;;;;5035592;28;20030;-71
2022/12/03 11:47:41;;;;;;;29.08;18.63;;;3.00;99.90;;;;;;5035110;28;20029;-71
2022/12/03 11:50:16;;;;;;;34.25;19.20;;;3.10;99.90;;;;;;5034947;28;20378;-71
2022/12/03 11:52:44;;;;;;;30.38;18.83;;;3.00;99.90;;;;;;5035382;28;20084;-71
2022/12/03 11:55:18;;;;;;;33.20;20.02;;;3.10;99.90;;;;;;5035096;28;20026;-71
2022/12/03 11:57:44;;;;;;;33.67;20.92;;;3.00;99.90;;;;;;5035372;28;20513;-71
2022/12/03 12:00:16;;;;;;;28.85;18.73;;;3.00;99.90;;;;;;5035087;28;20065;-71
2022/12/03 12:02:42;;;;;;;23.73;16.92;;;3.10;99.90;;;;;;5034534;28;20049;-71
2022/12/03 12:05:31;;;;;;;26.50;16.77;;;3.10;99.90;;;;;;5034924;28;20075;-71
2022/12/03 12:07:58;;;;;;;25.88;17.02;;;3.10;99.90;;;;;;5035006;28;20057;-71
2022/12/03 12:10:37;;;;;;;23.30;16.48;;;3.10;99.90;;;;;;5034851;28;20224;-71
2022/12/03 12:13:03;;;;;;;26.42;17.42;;;3.10;99.90;;;;;;5034748;28;20076;-71
2022/12/03 12:15:37;;;;;;;25.65;17.50;;;3.10;99.90;;;;;;5034246;28;20029;-71
2022/12/03 12:18:36;;;;;;;28.63;18.60;;;3.00;99.90;;;;;;5034626;28;20021;-71
2022/12/03 12:21:40;;;;;;;29.80;18.45;;;3.10;99.90;;;;;;5001198;28;20063;-71
2022/12/03 12:24:31;;;;;;;26.33;16.70;;;3.10;99.90;;;;;;5034730;28;20032;-71
2022/12/03 12:27:04;;;;;;;27.67;18.58;;;3.10;99.90;;;;;;5034090;28;20022;-72
2022/12/03 12:29:29;;;;;;;30.02;19.45;;;3.00;99.90;;;;;;5034474;28;20024;-71
2022/12/03 12:32:14;;;;;;;25.80;18.95;;;3.10;99.90;;;;;;5034115;28;20033;-71
2022/12/03 12:34:47;;;;;;;29.98;19.38;;;3.10;99.90;;;;;;5034486;28;20049;-71
2022/12/03 12:37:25;;;;;;;30.80;19.20;;;3.10;99.90;;;;;;5034031;28;20044;-71
2022/12/03 12:47:36;;;;;;;31.48;18.40;;;3.10;99.90;;;;;;6104458;22;20008;-71
2022/12/03 12:50:09;;;;;;;39.00;21.70;;;3.10;99.90;;;;;;5033454;28;20502;-72
2022/12/03 12:52:36;;;;;;;34.45;19.60;;;3.20;99.90;;;;;;5016380;28;20022;-72
2022/12/03 12:55:08;;;;;;;26.23;18.13;;;3.10;99.90;;;;;;5034395;28;20030;-72
2022/12/03 12:57:33;;;;;;;34.45;19.05;;;3.10;99.90;;;;;;5033533;28;20034;-72
2022/12/03 12:59:59;;;;;;;34.67;20.33;;;3.10;99.90;;;;;;5034466;28;20068;-73
2022/12/03 13:02:30;;;;;;;29.95;17.58;;;3.20;99.90;;;;;;5034270;28;20503;-73
2022/12/03 13:04:56;;;;;;;32.60;18.30;;;3.10;99.90;;;;;;5034204;28;20101;-73
2022/12/03 13:07:22;;;;;;;32.50;17.15;;;3.20;99.90;;;;;;5033170;28;20025;-72
2022/12/03 13:09:53;;;;;;;33.60;18.88;;;3.20;99.90;;;;;;5033674;28;20080;-73
2022/12/03 13:12:21;;;;;;;33.40;17.70;;;3.20;99.90;;;;;;5034047;28;20024;-73
2022/12/03 13:14:47;;;;;;;27.35;16.85;;;3.20;99.90;;;;;;5034147;28;20112;-73